sensor_id;sensor_type;location;lat;lon;timestamp;temperature;humidity
17587;DHT22;8912;52.336;17.172;2022-12-29T00:00:27;6.50;99.90
17587;DHT22;8912;52.336;17.172;2022-12-29T00:02:56;6.40;99.90
17587;DHT22;8912;52.336;17.172;2022-12-29T00:05:27;6.50;99.90
17587;DHT22;8912;52.336;17.172;2022-12-29T00:07:56;6.50;99.90
17587;DHT22;8912;52.336;17.172;2022-12-29T00:10:25;6.50;99.90
17587;DHT22;8912;52.336;17.172;2022-12-29T00:12:54;6.40;99.90
17587;DHT22;8912;52.336;17.172;2022-12-29T00:15:54;6.50;99.90
17587;DHT22;8912;52.336;17.172;2022-12-29T00:18:23;6.50;99.90
17587;DHT22;8912;52.336;17.172;2022-12-29T00:20:56;6.50;99.90
17587;DHT22;8912;52.336;17.172;2022-12-29T00:23:51;6.40;99.90
17587;DHT22;8912;52.336;17.172;2022-12-29T00:26:37;6.50;99.90
17587;DHT22;8912;52.336;17.172;2022-12-29T00:29:23;6.50;99.90
17587;DHT22;8912;52.336;17.172;2022-12-29T00:32:09;6.50;99.90
17587;DHT22;8912;52.336;17.172;2022-12-29T00:34:56;6.50;99.90
17587;DHT22;8912;52.336;17.172;2022-12-29T00:37:41;6.50;99.90
17587;DHT22;8912;52.336;17.172;2022-12-29T00:40:28;6.50;99.90
17587;DHT22;8912;52.336;17.172;2022-12-29T00:43:29;6.50;99.90
17587;DHT22;8912;52.336;17.172;2022-12-29T00:46:14;6.50;99.90
17587;DHT22;8912;52.336;17.172;2022-12-29T00:48:46;6.50;99.90
17587;DHT22;8912;52.336;17.172;2022-12-29T00:51:32;6.50;99.90
17587;DHT22;8912;52.336;17.172;2022-12-29T00:54:03;6.50;99.90
17587;DHT22;8912;52.336;17.172;2022-12-29T00:56:33;6.40;99.90
17587;DHT22;8912;52.336;17.172;2022-12-29T00:59:03;6.50;99.90
17587;DHT22;8912;52.336;17.172;2022-12-29T01:01:34;6.40;99.90
17587;DHT22;8912;52.336;17.172;2022-12-29T01:04:04;6.40;99.90
17587;DHT22;8912;52.336;17.172;2022-12-29T01:06:35;6.40;99.90
17587;DHT22;8912;52.336;17.172;2022-12-29T01:09:07;6.40;99.90
17587;DHT22;8912;52.336;17.172;2022-12-29T01:11:53;6.40;99.90
17587;DHT22;8912;52.336;17.172;2022-12-29T01:14:23;6.30;99.90
17587;DHT22;8912;52.336;17.172;2022-12-29T01:16:52;6.30;99.90
17587;DHT22;8912;52.336;17.172;2022-12-29T01:19:22;6.30;99.90
17587;DHT22;8912;52.336;17.172;2022-12-29T01:21:51;6.30;99.90
17587;DHT22;8912;52.336;17.172;2022-12-29T01:24:21;6.40;99.90
17587;DHT22;8912;52.336;17.172;2022-12-29T01:26:50;6.40;99.90
17587;DHT22;8912;52.336;17.172;2022-12-29T01:29:19;6.40;99.90
17587;DHT22;8912;52.336;17.172;2022-12-29T01:31:48;6.40;99.90
17587;DHT22;8912;52.336;17.172;2022-12-29T01:34:17;6.30;99.90
17587;DHT22;8912;52.336;17.172;2022-12-29T01:36:46;6.40;99.90
17587;DHT22;8912;52.336;17.172;2022-12-29T01:39:16;6.50;99.90
17587;DHT22;8912;52.336;17.172;2022-12-29T01:41:46;6.50;99.90
17587;DHT22;8912;52.336;17.172;2022-12-29T01:44:47;6.50;99.90
17587;DHT22;8912;52.336;17.172;2022-12-29T01:47:28;6.50;99.90
17587;DHT22;8912;52.336;17.172;2022-12-29T01:50:04;6.60;99.90
17587;DHT22;8912;52.336;17.172;2022-12-29T01:52:35;6.60;99.90
17587;DHT22;8912;52.336;17.172;2022-12-29T01:55:05;6.60;99.90
17587;DHT22;8912;52.336;17.172;2022-12-29T01:57:39;6.70;99.90
17587;DHT22;8912;52.336;17.172;2022-12-29T02:00:10;6.70;99.90
17587;DHT22;8912;52.336;17.172;2022-12-29T02:02:42;6.70;99.90
17587;DHT22;8912;52.336;17.172;2022-12-29T02:05:18;6.70;99.90
17587;DHT22;8912;52.336;17.172;2022-12-29T02:07:50;6.70;99.90
17587;DHT22;8912;52.336;17.172;2022-12-29T02:10:21;6.70;99.90
17587;DHT22;8912;52.336;17.172;2022-12-29T02:12:53;6.70;99.90
17587;DHT22;8912;52.336;17.172;2022-12-29T02:15:31;6.70;99.90
17587;DHT22;8912;52.336;17.172;2022-12-29T02:18:15;6.70;99.90
17587;DHT22;8912;52.336;17.172;2022-12-29T02:21:20;6.70;99.90
17587;DHT22;8912;52.336;17.172;2022-12-29T02:24:23;6.80;99.90
17587;DHT22;8912;52.336;17.172;2022-12-29T02:30:07;6.80;99.90
17587;DHT22;8912;52.336;17.172;2022-12-29T02:32:46;6.80;99.90
17587;DHT22;8912;52.336;17.172;2022-12-29T02:35:24;6.80;99.90
17587;DHT22;8912;52.336;17.172;2022-12-29T02:38:01;6.80;99.90
17587;DHT22;8912;52.336;17.172;2022-12-29T02:40:37;6.90;99.90
17587;DHT22;8912;52.336;17.172;2022-12-29T02:43:17;6.80;99.90
17587;DHT22;8912;52.336;17.172;2022-12-29T02:45:54;6.80;99.90
17587;DHT22;8912;52.336;17.172;2022-12-29T02:48:28;6.80;99.90
17587;DHT22;8912;52.336;17.172;2022-12-29T02:51:01;6.80;99.90
17587;DHT22;8912;52.336;17.172;2022-12-29T02:53:32;6.80;99.90
17587;DHT22;8912;52.336;17.172;2022-12-29T02:56:19;6.80;99.90
17587;DHT22;8912;52.336;17.172;2022-12-29T02:58:49;6.80;99.90
17587;DHT22;8912;52.336;17.172;2022-12-29T03:01:26;6.90;99.90
17587;DHT22;8912;52.336;17.172;2022-12-29T03:04:16;6.90;99.90
17587;DHT22;8912;52.336;17.172;2022-12-29T03:06:54;6.90;99.90
17587;DHT22;8912;52.336;17.172;2022-12-29T03:09:34;6.80;99.90
17587;DHT22;8912;52.336;17.172;2022-12-29T03:12:23;6.80;99.90
17587;DHT22;8912;52.336;17.172;2022-12-29T03:15:11;6.80;99.90
17587;DHT22;8912;52.336;17.172;2022-12-29T03:18:04;6.80;99.90
17587;DHT22;8912;52.336;17.172;2022-12-29T03:20:39;6.80;99.90
17587;DHT22;8912;52.336;17.172;2022-12-29T03:23:13;6.80;99.90
17587;DHT22;8912;52.336;17.172;2022-12-29T03:25:46;6.70;99.90
17587;DHT22;8912;52.336;17.172;2022-12-29T03:28:21;6.70;99.90
17587;DHT22;8912;52.336;17.172;2022-12-29T03:30:51;6.70;99.90
17587;DHT22;8912;52.336;17.172;2022-12-29T03:33:21;6.70;99.90
17587;DHT22;8912;52.336;17.172;2022-12-29T03:35:57;6.80;99.90
17587;DHT22;8912;52.336;17.172;2022-12-29T03:38:34;6.70;99.90
17587;DHT22;8912;52.336;17.172;2022-12-29T03:41:08;6.80;99.90
17587;DHT22;8912;52.336;17.172;2022-12-29T03:43:40;6.70;99.90
17587;DHT22;8912;52.336;17.172;2022-12-29T03:46:09;6.70;99.90
17587;DHT22;8912;52.336;17.172;2022-12-29T03:48:41;6.70;99.90
17587;DHT22;8912;52.336;17.172;2022-12-29T03:51:11;6.70;99.90
17587;DHT22;8912;52.336;17.172;2022-12-29T03:53:41;6.60;99.90
17587;DHT22;8912;52.336;17.172;2022-12-29T03:56:10;6.60;99.90
17587;DHT22;8912;52.336;17.172;2022-12-29T03:58:39;6.60;99.90
17587;DHT22;8912;52.336;17.172;2022-12-29T04:01:11;6.60;99.90
17587;DHT22;8912;52.336;17.172;2022-12-29T04:03:40;6.60;99.90
17587;DHT22;8912;52.336;17.172;2022-12-29T04:06:12;6.50;99.90
17587;DHT22;8912;52.336;17.172;2022-12-29T04:08:54;6.50;99.90
17587;DHT22;8912;52.336;17.172;2022-12-29T04:11:23;6.60;99.90
17587;DHT22;8912;52.336;17.172;2022-12-29T04:14:00;6.50;99.90
17587;DHT22;8912;52.336;17.172;2022-12-29T04:16:30;6.60;99.90
17587;DHT22;8912;52.336;17.172;2022-12-29T04:19:04;6.50;99.90
17587;DHT22;8912;52.336;17.172;2022-12-29T04:21:37;6.50;99.90
17587;DHT22;8912;52.336;17.172;2022-12-29T04:24:06;6.60;99.90
17587;DHT22;8912;52.336;17.172;2022-12-29T04:26:40;6.50;99.90
17587;DHT22;8912;52.336;17.172;2022-12-29T04:29:33;6.60;99.90
17587;DHT22;8912;52.336;17.172;2022-12-29T04:32:34;6.50;99.90
17587;DHT22;8912;52.336;17.172;2022-12-29T04:35:04;6.50;99.90
17587;DHT22;8912;52.336;17.172;2022-12-29T04:37:35;6.50;99.90
17587;DHT22;8912;52.336;17.172;2022-12-29T04:40:05;6.60;99.90
17587;DHT22;8912;52.336;17.172;2022-12-29T04:42:34;6.60;99.90
17587;DHT22;8912;52.336;17.172;2022-12-29T04:45:04;6.60;99.90
17587;DHT22;8912;52.336;17.172;2022-12-29T04:47:37;6.70;99.90
17587;DHT22;8912;52.336;17.172;2022-12-29T04:50:25;6.70;99.90
17587;DHT22;8912;52.336;17.172;2022-12-29T04:53:06;6.70;99.90
17587;DHT22;8912;52.336;17.172;2022-12-29T04:55:37;6.70;99.90
17587;DHT22;8912;52.336;17.172;2022-12-29T04:58:07;6.80;99.90
17587;DHT22;8912;52.336;17.172;2022-12-29T05:00:37;6.80;99.90
17587;DHT22;8912;52.336;17.172;2022-12-29T05:03:06;6.80;99.90
17587;DHT22;8912;52.336;17.172;2022-12-29T05:05:38;6.80;99.90
17587;DHT22;8912;52.336;17.172;2022-12-29T05:08:09;6.80;99.90
17587;DHT22;8912;52.336;17.172;2022-12-29T05:10:38;6.80;99.90
17587;DHT22;8912;52.336;17.172;2022-12-29T05:13:11;6.90;99.90
17587;DHT22;8912;52.336;17.172;2022-12-29T05:15:47;6.90;99.90
17587;DHT22;8912;52.336;17.172;2022-12-29T05:18:18;6.90;99.90
17587;DHT22;8912;52.336;17.172;2022-12-29T05:20:48;6.90;99.90
17587;DHT22;8912;52.336;17.172;2022-12-29T05:23:21;6.90;99.90
17587;DHT22;8912;52.336;17.172;2022-12-29T05:26:01;6.90;99.90
17587;DHT22;8912;52.336;17.172;2022-12-29T05:29:03;6.90;99.90
17587;DHT22;8912;52.336;17.172;2022-12-29T05:31:32;7.00;99.90
17587;DHT22;8912;52.336;17.172;2022-12-29T05:34:04;6.90;99.90
17587;DHT22;8912;52.336;17.172;2022-12-29T05:36:33;6.90;99.90
17587;DHT22;8912;52.336;17.172;2022-12-29T05:39:08;7.00;99.90
17587;DHT22;8912;52.336;17.172;2022-12-29T05:41:38;7.00;99.90
17587;DHT22;8912;52.336;17.172;2022-12-29T05:44:16;7.00;99.90
17587;DHT22;8912;52.336;17.172;2022-12-29T05:47:04;7.00;99.90
17587;DHT22;8912;52.336;17.172;2022-12-29T05:49:48;7.10;99.90
17587;DHT22;8912;52.336;17.172;2022-12-29T05:52:31;7.00;99.90
17587;DHT22;8912;52.336;17.172;2022-12-29T05:55:02;7.00;99.90
17587;DHT22;8912;52.336;17.172;2022-12-29T05:57:32;7.00;99.90
17587;DHT22;8912;52.336;17.172;2022-12-29T06:00:09;7.00;99.90
17587;DHT22;8912;52.336;17.172;2022-12-29T06:02:41;7.00;99.90
17587;DHT22;8912;52.336;17.172;2022-12-29T06:05:10;6.90;99.90
17587;DHT22;8912;52.336;17.172;2022-12-29T06:07:40;6.80;99.90
17587;DHT22;8912;52.336;17.172;2022-12-29T06:10:10;6.80;99.90
17587;DHT22;8912;52.336;17.172;2022-12-29T06:12:46;6.80;99.90
17587;DHT22;8912;52.336;17.172;2022-12-29T06:15:15;6.80;99.90
17587;DHT22;8912;52.336;17.172;2022-12-29T06:17:45;6.80;99.90
17587;DHT22;8912;52.336;17.172;2022-12-29T06:20:14;6.80;99.90
17587;DHT22;8912;52.336;17.172;2022-12-29T06:22:43;6.90;99.90
17587;DHT22;8912;52.336;17.172;2022-12-29T06:25:15;6.90;99.90
17587;DHT22;8912;52.336;17.172;2022-12-29T06:27:45;7.00;99.90
17587;DHT22;8912;52.336;17.172;2022-12-29T06:30:14;7.10;99.90
17587;DHT22;8912;52.336;17.172;2022-12-29T06:32:44;7.10;99.90
17587;DHT22;8912;52.336;17.172;2022-12-29T06:35:14;7.10;99.90
17587;DHT22;8912;52.336;17.172;2022-12-29T06:37:49;7.20;99.90
17587;DHT22;8912;52.336;17.172;2022-12-29T06:40:21;7.30;99.90
17587;DHT22;8912;52.336;17.172;2022-12-29T06:43:22;7.30;99.90
17587;DHT22;8912;52.336;17.172;2022-12-29T06:46:11;7.30;99.90
17587;DHT22;8912;52.336;17.172;2022-12-29T06:48:41;7.30;99.90
17587;DHT22;8912;52.336;17.172;2022-12-29T06:51:10;7.30;99.90
17587;DHT22;8912;52.336;17.172;2022-12-29T06:53:39;7.20;99.90
17587;DHT22;8912;52.336;17.172;2022-12-29T06:56:10;7.30;99.90
17587;DHT22;8912;52.336;17.172;2022-12-29T06:58:39;7.30;99.90
17587;DHT22;8912;52.336;17.172;2022-12-29T07:01:08;7.40;99.90
17587;DHT22;8912;52.336;17.172;2022-12-29T07:03:37;7.40;99.90
17587;DHT22;8912;52.336;17.172;2022-12-29T07:06:06;7.40;99.90
17587;DHT22;8912;52.336;17.172;2022-12-29T07:08:35;7.40;99.90
17587;DHT22;8912;52.336;17.172;2022-12-29T07:11:05;7.40;99.90
17587;DHT22;8912;52.336;17.172;2022-12-29T07:13:35;7.40;99.90
17587;DHT22;8912;52.336;17.172;2022-12-29T07:16:07;7.50;99.90
17587;DHT22;8912;52.336;17.172;2022-12-29T07:18:36;7.50;99.90
17587;DHT22;8912;52.336;17.172;2022-12-29T07:21:05;7.50;99.90
17587;DHT22;8912;52.336;17.172;2022-12-29T07:23:34;7.50;99.90
17587;DHT22;8912;52.336;17.172;2022-12-29T07:26:06;7.40;99.90
17587;DHT22;8912;52.336;17.172;2022-12-29T07:28:37;7.50;99.90
17587;DHT22;8912;52.336;17.172;2022-12-29T07:31:08;7.50;99.90
17587;DHT22;8912;52.336;17.172;2022-12-29T07:33:41;7.50;99.90
17587;DHT22;8912;52.336;17.172;2022-12-29T07:36:10;7.60;99.90
17587;DHT22;8912;52.336;17.172;2022-12-29T07:38:39;7.60;99.90
17587;DHT22;8912;52.336;17.172;2022-12-29T07:41:08;7.60;99.90
17587;DHT22;8912;52.336;17.172;2022-12-29T07:43:39;7.60;99.90
17587;DHT22;8912;52.336;17.172;2022-12-29T07:46:34;7.70;99.90
17587;DHT22;8912;52.336;17.172;2022-12-29T07:49:23;7.70;99.90
17587;DHT22;8912;52.336;17.172;2022-12-29T07:51:51;7.70;99.90
17587;DHT22;8912;52.336;17.172;2022-12-29T07:54:20;7.80;99.90
17587;DHT22;8912;52.336;17.172;2022-12-29T07:56:50;7.80;99.90
17587;DHT22;8912;52.336;17.172;2022-12-29T07:59:21;7.90;99.90
17587;DHT22;8912;52.336;17.172;2022-12-29T08:01:50;7.90;99.90
17587;DHT22;8912;52.336;17.172;2022-12-29T08:04:19;8.00;99.90
17587;DHT22;8912;52.336;17.172;2022-12-29T08:06:48;7.90;99.90
17587;DHT22;8912;52.336;17.172;2022-12-29T08:09:17;8.00;99.90
17587;DHT22;8912;52.336;17.172;2022-12-29T08:11:50;8.00;99.90
17587;DHT22;8912;52.336;17.172;2022-12-29T08:14:21;8.00;99.90
17587;DHT22;8912;52.336;17.172;2022-12-29T08:16:50;8.00;99.90
17587;DHT22;8912;52.336;17.172;2022-12-29T08:19:19;8.00;99.90
17587;DHT22;8912;52.336;17.172;2022-12-29T08:21:48;8.10;99.90
17587;DHT22;8912;52.336;17.172;2022-12-29T08:24:17;8.10;99.90
17587;DHT22;8912;52.336;17.172;2022-12-29T08:26:46;8.10;99.90
17587;DHT22;8912;52.336;17.172;2022-12-29T08:29:15;8.10;99.90
17587;DHT22;8912;52.336;17.172;2022-12-29T08:31:45;8.10;99.90
17587;DHT22;8912;52.336;17.172;2022-12-29T08:34:14;8.10;99.90
17587;DHT22;8912;52.336;17.172;2022-12-29T08:36:43;8.10;99.90
17587;DHT22;8912;52.336;17.172;2022-12-29T08:39:12;8.10;99.90
17587;DHT22;8912;52.336;17.172;2022-12-29T08:41:45;8.20;99.90
17587;DHT22;8912;52.336;17.172;2022-12-29T08:44:14;8.20;99.90
17587;DHT22;8912;52.336;17.172;2022-12-29T08:46:42;8.20;99.90
17587;DHT22;8912;52.336;17.172;2022-12-29T08:49:13;8.20;99.90
17587;DHT22;8912;52.336;17.172;2022-12-29T08:51:42;8.20;99.90
17587;DHT22;8912;52.336;17.172;2022-12-29T08:54:11;8.20;99.90
17587;DHT22;8912;52.336;17.172;2022-12-29T08:56:41;8.20;99.90
17587;DHT22;8912;52.336;17.172;2022-12-29T08:59:10;8.20;99.90
17587;DHT22;8912;52.336;17.172;2022-12-29T09:01:40;8.20;99.90
17587;DHT22;8912;52.336;17.172;2022-12-29T09:04:08;8.10;99.90
17587;DHT22;8912;52.336;17.172;2022-12-29T09:06:45;8.10;99.90
17587;DHT22;8912;52.336;17.172;2022-12-29T09:09:14;8.10;99.90
17587;DHT22;8912;52.336;17.172;2022-12-29T09:11:43;8.10;99.90
17587;DHT22;8912;52.336;17.172;2022-12-29T09:14:12;8.20;99.90
17587;DHT22;8912;52.336;17.172;2022-12-29T09:16:41;8.20;99.90
17587;DHT22;8912;52.336;17.172;2022-12-29T09:19:27;8.30;99.90
17587;DHT22;8912;52.336;17.172;2022-12-29T09:21:58;8.40;99.90
17587;DHT22;8912;52.336;17.172;2022-12-29T09:24:27;8.50;99.90
17587;DHT22;8912;52.336;17.172;2022-12-29T09:26:56;8.60;99.90
17587;DHT22;8912;52.336;17.172;2022-12-29T09:29:24;8.60;99.90
17587;DHT22;8912;52.336;17.172;2022-12-29T09:31:57;8.70;99.90
17587;DHT22;8912;52.336;17.172;2022-12-29T09:34:31;8.80;99.90
17587;DHT22;8912;52.336;17.172;2022-12-29T09:37:01;8.80;99.90
17587;DHT22;8912;52.336;17.172;2022-12-29T09:39:30;8.80;99.90
17587;DHT22;8912;52.336;17.172;2022-12-29T09:42:02;8.90;99.90
17587;DHT22;8912;52.336;17.172;2022-12-29T09:44:46;9.00;99.90
17587;DHT22;8912;52.336;17.172;2022-12-29T09:47:17;9.00;99.90
17587;DHT22;8912;52.336;17.172;2022-12-29T09:49:51;9.10;99.90
17587;DHT22;8912;52.336;17.172;2022-12-29T09:52:23;9.20;99.90
17587;DHT22;8912;52.336;17.172;2022-12-29T09:54:58;9.20;99.90
17587;DHT22;8912;52.336;17.172;2022-12-29T09:57:43;9.30;99.90
17587;DHT22;8912;52.336;17.172;2022-12-29T10:00:16;9.40;99.90
17587;DHT22;8912;52.336;17.172;2022-12-29T10:02:49;9.50;99.90
17587;DHT22;8912;52.336;17.172;2022-12-29T10:05:27;9.50;99.90
17587;DHT22;8912;52.336;17.172;2022-12-29T10:08:14;9.50;99.90
17587;DHT22;8912;52.336;17.172;2022-12-29T10:10:54;9.60;99.90
17587;DHT22;8912;52.336;17.172;2022-12-29T10:13:31;9.60;99.90
17587;DHT22;8912;52.336;17.172;2022-12-29T10:16:09;9.60;99.90
17587;DHT22;8912;52.336;17.172;2022-12-29T10:19:04;9.70;99.90
17587;DHT22;8912;52.336;17.172;2022-12-29T10:21:45;9.80;99.90
17587;DHT22;8912;52.336;17.172;2022-12-29T10:24:22;9.80;99.90
17587;DHT22;8912;52.336;17.172;2022-12-29T10:26:51;9.80;99.90
17587;DHT22;8912;52.336;17.172;2022-12-29T10:29:24;9.90;99.90
17587;DHT22;8912;52.336;17.172;2022-12-29T10:31:57;9.80;99.90
17587;DHT22;8912;52.336;17.172;2022-12-29T10:34:29;10.00;99.90
17587;DHT22;8912;52.336;17.172;2022-12-29T10:37:03;10.00;99.90
17587;DHT22;8912;52.336;17.172;2022-12-29T10:39:41;10.00;99.90
17587;DHT22;8912;52.336;17.172;2022-12-29T10:42:15;10.00;99.90
17587;DHT22;8912;52.336;17.172;2022-12-29T10:44:48;10.20;99.90
17587;DHT22;8912;52.336;17.172;2022-12-29T10:47:20;10.30;99.90
17587;DHT22;8912;52.336;17.172;2022-12-29T10:49:51;10.40;99.90
17587;DHT22;8912;52.336;17.172;2022-12-29T10:52:22;10.40;99.90
17587;DHT22;8912;52.336;17.172;2022-12-29T10:54:55;10.40;99.90
17587;DHT22;8912;52.336;17.172;2022-12-29T10:57:28;10.30;99.90
17587;DHT22;8912;52.336;17.172;2022-12-29T10:59:59;10.30;99.90
17587;DHT22;8912;52.336;17.172;2022-12-29T11:02:48;10.20;99.90
17587;DHT22;8912;52.336;17.172;2022-12-29T11:05:28;10.30;99.90
17587;DHT22;8912;52.336;17.172;2022-12-29T11:08:02;10.30;99.90
17587;DHT22;8912;52.336;17.172;2022-12-29T11:10:38;10.30;99.90
17587;DHT22;8912;52.336;17.172;2022-12-29T11:13:15;10.60;99.90
17587;DHT22;8912;52.336;17.172;2022-12-29T11:15:45;10.70;99.90
17587;DHT22;8912;52.336;17.172;2022-12-29T11:18:21;10.80;99.90
17587;DHT22;8912;52.336;17.172;2022-12-29T11:20:54;10.80;99.90
17587;DHT22;8912;52.336;17.172;2022-12-29T11:23:30;10.80;99.90
17587;DHT22;8912;52.336;17.172;2022-12-29T11:26:13;10.90;99.90
17587;DHT22;8912;52.336;17.172;2022-12-29T11:28:44;11.00;99.90
17587;DHT22;8912;52.336;17.172;2022-12-29T11:31:17;11.00;99.90
17587;DHT22;8912;52.336;17.172;2022-12-29T11:33:47;11.00;99.90
17587;DHT22;8912;52.336;17.172;2022-12-29T11:36:19;11.00;99.90
17587;DHT22;8912;52.336;17.172;2022-12-29T11:38:50;11.00;99.90
17587;DHT22;8912;52.336;17.172;2022-12-29T11:41:23;11.10;99.90
17587;DHT22;8912;52.336;17.172;2022-12-29T11:43:55;11.10;99.90
17587;DHT22;8912;52.336;17.172;2022-12-29T11:46:28;11.10;99.90
17587;DHT22;8912;52.336;17.172;2022-12-29T11:48:58;11.30;99.90
17587;DHT22;8912;52.336;17.172;2022-12-29T11:51:30;11.40;99.90
17587;DHT22;8912;52.336;17.172;2022-12-29T11:54:01;11.40;99.90
17587;DHT22;8912;52.336;17.172;2022-12-29T11:56:36;11.50;99.90
17587;DHT22;8912;52.336;17.172;2022-12-29T11:59:37;11.50;99.90
17587;DHT22;8912;52.336;17.172;2022-12-29T12:02:36;11.60;99.90
17587;DHT22;8912;52.336;17.172;2022-12-29T12:05:14;11.80;99.90
17587;DHT22;8912;52.336;17.172;2022-12-29T12:07:46;11.80;99.90
17587;DHT22;8912;52.336;17.172;2022-12-29T12:10:26;11.90;99.90
17587;DHT22;8912;52.336;17.172;2022-12-29T12:13:04;11.90;99.90
17587;DHT22;8912;52.336;17.172;2022-12-29T12:15:38;11.90;99.90
17587;DHT22;8912;52.336;17.172;2022-12-29T12:18:17;11.90;99.90
17587;DHT22;8912;52.336;17.172;2022-12-29T12:20:50;11.90;99.90
17587;DHT22;8912;52.336;17.172;2022-12-29T12:23:32;12.00;99.90
17587;DHT22;8912;52.336;17.172;2022-12-29T12:26:10;12.00;99.90
17587;DHT22;8912;52.336;17.172;2022-12-29T12:28:48;12.00;99.90
17587;DHT22;8912;52.336;17.172;2022-12-29T12:31:29;11.90;99.90
17587;DHT22;8912;52.336;17.172;2022-12-29T12:34:04;11.90;99.90
17587;DHT22;8912;52.336;17.172;2022-12-29T12:36:58;11.80;99.90
17587;DHT22;8912;52.336;17.172;2022-12-29T12:39:36;11.60;99.90
17587;DHT22;8912;52.336;17.172;2022-12-29T12:42:20;11.50;99.90
17587;DHT22;8912;52.336;17.172;2022-12-29T12:45:07;11.50;99.90
17587;DHT22;8912;52.336;17.172;2022-12-29T12:47:51;11.50;99.90
17587;DHT22;8912;52.336;17.172;2022-12-29T12:50:36;11.40;99.90
17587;DHT22;8912;52.336;17.172;2022-12-29T12:53:20;11.50;99.90
17587;DHT22;8912;52.336;17.172;2022-12-29T12:56:08;11.80;99.90
17587;DHT22;8912;52.336;17.172;2022-12-29T12:58:45;11.80;99.90
17587;DHT22;8912;52.336;17.172;2022-12-29T13:01:29;11.80;99.90
17587;DHT22;8912;52.336;17.172;2022-12-29T13:04:20;11.70;99.90
17587;DHT22;8912;52.336;17.172;2022-12-29T13:07:00;11.60;99.90
17587;DHT22;8912;52.336;17.172;2022-12-29T13:09:45;11.50;99.90
17587;DHT22;8912;52.336;17.172;2022-12-29T13:12:24;11.50;99.90
17587;DHT22;8912;52.336;17.172;2022-12-29T13:15:09;11.70;99.90
17587;DHT22;8912;52.336;17.172;2022-12-29T13:17:47;11.80;99.90
17587;DHT22;8912;52.336;17.172;2022-12-29T13:20:26;11.90;99.90
17587;DHT22;8912;52.336;17.172;2022-12-29T13:23:05;11.90;99.90
17587;DHT22;8912;52.336;17.172;2022-12-29T13:25:41;12.00;99.90
17587;DHT22;8912;52.336;17.172;2022-12-29T13:28:19;12.10;99.90
17587;DHT22;8912;52.336;17.172;2022-12-29T13:30:56;12.10;99.90
17587;DHT22;8912;52.336;17.172;2022-12-29T13:33:33;12.00;99.90
17587;DHT22;8912;52.336;17.172;2022-12-29T13:36:13;11.90;99.90
17587;DHT22;8912;52.336;17.172;2022-12-29T13:38:46;11.80;99.90
17587;DHT22;8912;52.336;17.172;2022-12-29T13:41:25;11.70;99.90
17587;DHT22;8912;52.336;17.172;2022-12-29T13:43:57;11.50;99.90
17587;DHT22;8912;52.336;17.172;2022-12-29T13:46:29;11.50;99.90
17587;DHT22;8912;52.336;17.172;2022-12-29T13:49:05;11.40;99.90
17587;DHT22;8912;52.336;17.172;2022-12-29T13:51:38;11.40;99.90
17587;DHT22;8912;52.336;17.172;2022-12-29T13:54:22;11.30;99.90
17587;DHT22;8912;52.336;17.172;2022-12-29T13:56:59;11.30;99.90
17587;DHT22;8912;52.336;17.172;2022-12-29T13:59:37;11.10;99.90
17587;DHT22;8912;52.336;17.172;2022-12-29T14:02:21;10.90;99.90
17587;DHT22;8912;52.336;17.172;2022-12-29T14:04:59;11.00;99.90
17587;DHT22;8912;52.336;17.172;2022-12-29T14:07:29;10.90;99.90
17587;DHT22;8912;52.336;17.172;2022-12-29T14:09:58;10.90;99.90
17587;DHT22;8912;52.336;17.172;2022-12-29T14:12:31;10.80;99.90
17587;DHT22;8912;52.336;17.172;2022-12-29T14:15:14;10.80;99.90
17587;DHT22;8912;52.336;17.172;2022-12-29T14:17:44;10.80;99.90
17587;DHT22;8912;52.336;17.172;2022-12-29T14:20:21;10.80;99.90
17587;DHT22;8912;52.336;17.172;2022-12-29T14:22:59;10.70;99.90
17587;DHT22;8912;52.336;17.172;2022-12-29T14:28:35;10.70;99.90
17587;DHT22;8912;52.336;17.172;2022-12-29T14:31:23;10.60;99.90
17587;DHT22;8912;52.336;17.172;2022-12-29T14:34:25;10.60;99.90
17587;DHT22;8912;52.336;17.172;2022-12-29T14:36:58;10.50;99.90
17587;DHT22;8912;52.336;17.172;2022-12-29T14:39:36;10.50;99.90
17587;DHT22;8912;52.336;17.172;2022-12-29T14:42:06;10.50;99.90
17587;DHT22;8912;52.336;17.172;2022-12-29T14:44:46;10.50;99.90
17587;DHT22;8912;52.336;17.172;2022-12-29T14:47:20;10.50;99.90
17587;DHT22;8912;52.336;17.172;2022-12-29T14:49:51;10.50;99.90
17587;DHT22;8912;52.336;17.172;2022-12-29T14:52:24;10.40;99.90
17587;DHT22;8912;52.336;17.172;2022-12-29T14:54:55;10.40;99.90
17587;DHT22;8912;52.336;17.172;2022-12-29T14:57:35;10.30;99.90
17587;DHT22;8912;52.336;17.172;2022-12-29T15:00:14;10.30;99.90
17587;DHT22;8912;52.336;17.172;2022-12-29T15:02:46;10.10;99.90
17587;DHT22;8912;52.336;17.172;2022-12-29T15:05:32;9.90;99.90
17587;DHT22;8912;52.336;17.172;2022-12-29T15:08:05;9.80;99.90
17587;DHT22;8912;52.336;17.172;2022-12-29T15:10:40;9.70;99.90
17587;DHT22;8912;52.336;17.172;2022-12-29T15:13:17;9.70;99.90
17587;DHT22;8912;52.336;17.172;2022-12-29T15:15:46;9.70;99.90
17587;DHT22;8912;52.336;17.172;2022-12-29T15:18:23;9.60;99.90
17587;DHT22;8912;52.336;17.172;2022-12-29T15:20:55;9.50;99.90
17587;DHT22;8912;52.336;17.172;2022-12-29T15:23:26;9.30;99.90
17587;DHT22;8912;52.336;17.172;2022-12-29T15:25:57;9.30;99.90
17587;DHT22;8912;52.336;17.172;2022-12-29T15:28:28;9.30;99.90
17587;DHT22;8912;52.336;17.172;2022-12-29T15:31:09;9.20;99.90
17587;DHT22;8912;52.336;17.172;2022-12-29T15:33:41;9.00;99.90
17587;DHT22;8912;52.336;17.172;2022-12-29T15:36:12;8.90;99.90
17587;DHT22;8912;52.336;17.172;2022-12-29T15:38:43;8.90;99.90
17587;DHT22;8912;52.336;17.172;2022-12-29T15:41:26;8.90;99.90
17587;DHT22;8912;52.336;17.172;2022-12-29T15:44:07;8.90;99.90
17587;DHT22;8912;52.336;17.172;2022-12-29T15:46:38;8.80;99.90
17587;DHT22;8912;52.336;17.172;2022-12-29T15:49:08;8.80;99.90
17587;DHT22;8912;52.336;17.172;2022-12-29T15:51:39;8.30;99.90
17587;DHT22;8912;52.336;17.172;2022-12-29T15:54:15;8.70;99.90
17587;DHT22;8912;52.336;17.172;2022-12-29T15:56:45;8.60;99.90
17587;DHT22;8912;52.336;17.172;2022-12-29T15:59:24;8.60;99.90
17587;DHT22;8912;52.336;17.172;2022-12-29T16:01:54;8.60;99.90
17587;DHT22;8912;52.336;17.172;2022-12-29T16:04:24;8.50;99.90
17587;DHT22;8912;52.336;17.172;2022-12-29T16:06:56;8.40;99.90
17587;DHT22;8912;52.336;17.172;2022-12-29T16:09:34;8.50;99.90
17587;DHT22;8912;52.336;17.172;2022-12-29T16:12:05;8.50;99.90
17587;DHT22;8912;52.336;17.172;2022-12-29T16:14:41;8.60;99.90
17587;DHT22;8912;52.336;17.172;2022-12-29T16:17:15;8.60;99.90
17587;DHT22;8912;52.336;17.172;2022-12-29T16:19:50;8.60;99.90
17587;DHT22;8912;52.336;17.172;2022-12-29T16:22:27;8.60;99.90
17587;DHT22;8912;52.336;17.172;2022-12-29T16:25:02;8.70;99.90
17587;DHT22;8912;52.336;17.172;2022-12-29T16:27:36;8.60;99.90
17587;DHT22;8912;52.336;17.172;2022-12-29T16:30:12;8.60;99.90
17587;DHT22;8912;52.336;17.172;2022-12-29T16:32:46;8.50;99.90
17587;DHT22;8912;52.336;17.172;2022-12-29T16:35:18;8.50;99.90
17587;DHT22;8912;52.336;17.172;2022-12-29T16:37:48;8.40;99.90